Euskara    
Meteorología y climatología de Navarra
Datos de la estación - Meteo Navarra

Estación de Bardenas (El Yugo) GN

Altitud 486 m.


Datos desde el 14/01/2021 hasta el 15/01/2021 en horario solar
Los datos son PROVISIONALES

Anterior Página 1 de 1 Siguiente Descargar: Formato para Excel 2000 o superior   Formato csv   Formato para OpenOffice Calc
Fecha Temperatura Humedad relativa Radiación global Insolación Precipitación Vel. viento 10 m Vel. viento 10 m Dir. viento 10 m
°C % W/m² s l/m² m/s km/h °
14/01/2021 0:00 3.0 79 0.0 0 0.0 8.7 31.5 315
14/01/2021 0:10 3.0 78 0.0 0 0.0 8.3 29.8 317
14/01/2021 0:20 2.9 78 0.0 0 0.0 8.8 31.6 316
14/01/2021 0:30 3.0 77 0.0 0 0.0 9.9 35.6 314
14/01/2021 0:40 2.8 78 0.0 0 0.0 8.2 29.4 308
14/01/2021 0:50 2.4 80 0.0 0 0.0 7.1 25.7 308
14/01/2021 1:00 2.4 80 0.0 0 0.0 6.4 23.1 309
14/01/2021 1:10 2.6 79 0.0 0 0.0 7.6 27.3 307
14/01/2021 1:20 2.6 79 0.0 0 0.0 6.7 24.1 306
14/01/2021 1:30 2.1 81 0.0 0 0.0 6.0 21.5 304
14/01/2021 1:40 2.0 81 0.0 0 0.0 6.6 23.7 302
14/01/2021 1:50 2.0 81 0.0 0 0.0 7.4 26.7 309
14/01/2021 2:00 2.2 80 0.0 0 0.0 7.8 28.1 312
14/01/2021 2:10 2.3 79 0.0 0 0.0 7.6 27.5 308
14/01/2021 2:20 2.3 79 0.0 0 0.0 7.7 27.6 308
14/01/2021 2:30 2.2 79 0.0 0 0.0 7.5 26.9 309
14/01/2021 2:40 2.2 79 0.0 0 0.0 7.6 27.2 309
14/01/2021 2:50 2.1 80 0.0 0 0.0 7.3 26.4 312
14/01/2021 3:00 2.1 79 0.0 0 0.0 8.0 28.7 314
14/01/2021 3:10 2.1 79 0.0 0 0.0 7.5 27.0 313
14/01/2021 3:20 2.1 79 0.0 0 0.0 7.6 27.3 307
14/01/2021 3:30 2.0 79 0.0 0 0.0 7.1 25.4 306
14/01/2021 3:40 2.0 79 0.0 0 0.0 7.5 26.8 304
14/01/2021 3:50 1.9 80 0.0 0 0.0 6.9 24.8 299
14/01/2021 4:00 1.6 81 0.0 0 0.0 6.3 22.5 299
14/01/2021 4:10 1.7 81 0.0 0 0.0 6.5 23.2 294
14/01/2021 4:20 1.7 82 0.0 0 0.0 6.6 23.7 293
14/01/2021 4:30 1.8 81 0.0 0 0.0 6.1 22.0 293
14/01/2021 4:40 1.9 81 0.0 0 0.0 5.9 21.3 297
14/01/2021 4:50 2.0 80 0.0 0 0.0 6.2 22.5 295
14/01/2021 5:00 2.1 80 0.0 0 0.0 6.4 23.1 297
14/01/2021 5:10 2.1 80 0.0 0 0.0 6.0 21.4 299
14/01/2021 5:20 2.1 80 0.0 0 0.0 6.2 22.4 303
14/01/2021 5:30 2.2 80 0.0 0 0.0 6.6 23.7 306
14/01/2021 5:40 2.3 79 0.0 0 0.0 8.3 29.7 308
14/01/2021 5:50 2.3 79 0.0 0 0.0 7.9 28.5 308
14/01/2021 6:00 2.0 80 0.0 0 0.0 7.3 26.2 305
14/01/2021 6:10 2.0 80 0.0 0 0.0 6.7 24.2 304
14/01/2021 6:20 2.0 80 0.0 0 0.0 6.9 24.9 301
14/01/2021 6:30 1.8 81 0.0 0 0.0 6.9 24.7 302
14/01/2021 6:40 1.9 81 0.0 0 0.0 7.3 26.2 306
14/01/2021 6:50 2.0 80 0.0 0 0.0 6.5 23.4 301
14/01/2021 7:00 1.8 81 0.0 0 0.0 6.0 21.4 294
14/01/2021 7:10 1.7 82 0.0 0 0.0 6.0 21.7 297
14/01/2021 7:20 1.6 82 0.0 0 0.0 6.1 21.9 303
14/01/2021 7:30 1.6 82 0.0 0 0.0 6.1 21.9 304
14/01/2021 7:40 1.7 81 0.0 0 0.0 6.9 24.9 307
14/01/2021 7:50 1.9 80 18.5 0 0.0 7.1 25.5 308
14/01/2021 8:00 2.1 80 35.6 552 0.0 6.4 23.0 314
14/01/2021 8:10 2.1 80 45.9 350 0.0 6.1 22.0 310
14/01/2021 8:20 2.2 79 82.4 546 0.0 5.8 20.8 310
14/01/2021 8:30 2.4 79 64.1 218 0.0 6.0 21.5 309
14/01/2021 8:40 2.4 79 99.1 474 0.0 5.5 19.7 305
14/01/2021 8:50 2.5 78 115.4 398 0.0 6.2 22.4 297
14/01/2021 9:00 2.8 77 168.5 600 0.0 6.4 23.0 301
14/01/2021 9:10 3.2 76 203.2 600 0.0 7.9 28.3 307
14/01/2021 9:20 3.5 75 237.0 600 0.0 6.2 22.4 313
14/01/2021 9:30 3.6 74 268.9 600 0.0 6.9 24.7 314
14/01/2021 9:40 3.7 74 254.2 510 0.0 7.9 28.6 313
14/01/2021 9:50 3.8 74 279.2 498 0.0 7.3 26.1 315
14/01/2021 10:00 4.1 73 362.1 600 0.0 6.8 24.6 323
14/01/2021 10:10 4.7 72 429.4 600 0.0 7.0 25.3 323
14/01/2021 10:20 4.6 71 386.5 598 0.0 8.2 29.4 316
14/01/2021 10:30 4.7 71 361.5 600 0.0 7.4 26.7 317
14/01/2021 10:40 4.8 71 385.6 600 0.0 7.8 28.1 313
14/01/2021 10:50 4.9 71 404.2 600 0.0 8.3 29.7 316
14/01/2021 11:00 5.1 70 341.0 412 0.0 7.5 27.0 316
14/01/2021 11:10 5.1 71 423.0 596 0.0 8.5 30.6 314
14/01/2021 11:20 5.2 71 346.7 564 0.0 7.7 27.9 313
14/01/2021 11:30 5.5 70 324.4 524 0.0 7.2 25.7 310
14/01/2021 11:40 5.8 69 422.5 530 0.0 7.1 25.6 303
14/01/2021 11:50 5.9 69 417.6 568 0.0 7.1 25.7 300
14/01/2021 12:00 5.8 70 264.4 482 0.0 5.6 20.3 304
14/01/2021 12:10 5.8 70 226.3 152 0.0 6.5 23.3 298
14/01/2021 12:20 5.5 70 173.8 0 0.0 7.2 26.0 307
14/01/2021 12:30 5.5 71 223.3 144 0.0 6.8 24.3 308
14/01/2021 12:40 6.2 69 395.2 578 0.0 6.6 23.8 306
14/01/2021 12:50 6.7 67 474.5 580 0.0 5.8 21.0 309
14/01/2021 13:00 6.9 66 498.3 578 0.0 6.5 23.4 314
14/01/2021 13:10 7.1 66 455.4 596 0.0 6.5 23.4 311
14/01/2021 13:20 7.2 66 451.0 600 0.0 6.0 21.5 311
14/01/2021 13:30 7.1 65 441.4 600 0.0 7.6 27.5 312
14/01/2021 13:40 7.0 66 430.3 600 0.0 6.9 24.8 317
14/01/2021 13:50 7.2 65 414.7 600 0.0 6.2 22.2 313
14/01/2021 14:00 7.2 65 399.0 600 0.0 7.2 26.0 305
14/01/2021 14:10 7.3 64 383.3 600 0.0 6.6 23.9 305
14/01/2021 14:20 7.5 63 365.2 600 0.0 6.8 24.5 304
14/01/2021 14:30 7.5 63 353.8 600 0.0 6.0 21.6 306
14/01/2021 14:40 7.5 63 327.7 600 0.0 6.8 24.4 311
14/01/2021 14:50 7.6 62 319.5 600 0.0 6.6 23.6 308
14/01/2021 15:00 7.4 62 275.9 600 0.0 7.3 26.3 307
14/01/2021 15:10 7.3 63 254.5 600 0.0 6.2 22.2 299
14/01/2021 15:20 7.4 64 230.0 600 0.0 6.1 22.1 305
14/01/2021 15:30 7.4 64 212.3 546 0.0 6.7 24.2 306
14/01/2021 15:40 7.1 66 82.0 0 0.0 5.9 21.1 305
14/01/2021 15:50 6.7 68 84.2 122 0.0 6.5 23.3 307
14/01/2021 16:00 6.7 68 152.3 600 0.0 5.7 20.5 302
14/01/2021 16:10 6.9 67 102.5 430 0.0 6.3 22.6 303
14/01/2021 16:20 6.0 68 32.7 8 0.0 6.8 24.6 301
14/01/2021 16:30 5.7 70 33.6 216 0.0 6.4 23.0 296
14/01/2021 16:40 5.4 71 9.5 0 0.0 6.4 23.2 302
14/01/2021 16:50 5.4 72 0.0 0 0.0 6.6 23.7 306
14/01/2021 17:00 5.5 72 0.0 0 0.0 6.9 24.8 306
14/01/2021 17:10 5.4 72 0.0 0 0.0 6.5 23.5 306
14/01/2021 17:20 5.3 73 0.0 0 0.0 6.6 23.7 308
14/01/2021 17:30 5.2 75 0.0 0 0.0 6.8 24.4 307
14/01/2021 17:40 5.3 75 0.0 0 0.0 6.1 22.0 302
14/01/2021 17:50 5.4 76 0.0 0 0.0 6.2 22.4 303
14/01/2021 18:00 5.2 76 0.0 0 0.0 6.4 23.0 308
14/01/2021 18:10 5.2 77 0.0 0 0.0 6.9 24.7 312
14/01/2021 18:20 5.4 78 0.0 0 0.0 7.1 25.6 306
14/01/2021 18:30 5.3 78 0.0 0 0.0 6.6 23.8 308
14/01/2021 18:40 5.0 78 0.0 0 0.0 6.3 22.6 315
14/01/2021 18:50 4.8 80 0.0 0 0.0 6.6 23.6 308
14/01/2021 19:00 5.1 81 0.0 0 0.0 6.5 23.4 307
14/01/2021 19:10 4.9 84 0.0 0 0.0 6.2 22.4 312
14/01/2021 19:20 5.0 82 0.0 0 0.0 6.4 23.0 315
14/01/2021 19:30 5.1 81 0.0 0 0.0 7.0 25.1 316
14/01/2021 19:40 5.4 80 0.0 0 0.0 7.2 25.9 311
14/01/2021 19:50 5.5 80 0.0 0 0.0 7.4 26.7 312
14/01/2021 20:00 5.5 80 0.0 0 0.0 6.1 21.8 317
14/01/2021 20:10 5.5 81 0.0 0 0.0 6.1 22.0 316
14/01/2021 20:20 5.7 81 0.0 0 0.0 6.8 24.3 313
14/01/2021 20:30 5.8 81 0.0 0 0.0 6.5 23.5 314
14/01/2021 20:40 5.4 82 0.0 0 0.0 6.0 21.6 316
14/01/2021 20:50 5.4 82 0.0 0 0.0 6.1 21.8 313
14/01/2021 21:00 5.5 83 0.0 0 0.0 6.4 23.2 309
14/01/2021 21:10 5.8 82 0.0 0 0.0 6.8 24.5 311
14/01/2021 21:20 5.7 82 0.0 0 0.0 6.6 23.8 311
14/01/2021 21:30 5.7 82 0.0 0 0.0 7.1 25.4 310
14/01/2021 21:40 5.7 81 0.0 0 0.0 6.9 24.9 311
14/01/2021 21:50 5.8 81 0.0 0 0.0 7.2 26.0 303
14/01/2021 22:00 5.7 82 0.0 0 0.0 7.4 26.6 295
14/01/2021 22:10 5.5 83 0.0 0 0.0 6.7 24.1 298
14/01/2021 22:20 5.4 84 0.0 0 0.0 6.6 23.7 296
14/01/2021 22:30 5.4 84 0.0 0 0.0 7.3 26.1 294
14/01/2021 22:40 5.5 83 0.0 0 0.0 6.7 24.3 300
14/01/2021 22:50 5.5 84 0.0 0 0.0 6.3 22.7 302
14/01/2021 23:00 5.5 83 0.0 0 0.0 6.2 22.2 309
14/01/2021 23:10 5.4 83 0.0 0 0.0 7.1 25.6 310
14/01/2021 23:20 5.4 83 0.0 0 0.0 7.4 26.7 311
14/01/2021 23:30 5.4 82 0.0 0 0.0 7.2 25.8 313
14/01/2021 23:40 5.3 82 0.0 0 0.0 7.0 25.2 314
14/01/2021 23:50 5.3 82 0.0 0 0.0 7.4 26.7 314
Anterior Página 1 de 1 Siguiente

NOTA: Tipo de datos según el color:
   - Valores diarios o 10 minutos correctos
   - Valores diarios calculados a partir de un número de datos 10 minutos menor que 144 y mayor que 120, o de un número de datos semihorarios menor que 48 y mayor que 40 (caso de las estaciones de INTIA Y Ministerio)
   - Valores diez minutos estimados


Contacto        Enlaces        Aviso legal